sensor_id;sensor_type;location;lat;lon;timestamp;temperature;humidity
2465;DHT22;1244;54.326;10.074;2024-01-25T00:01:16;7.10;99.90
2465;DHT22;1244;54.326;10.074;2024-01-25T00:03:41;7.10;99.90
2465;DHT22;1244;54.326;10.074;2024-01-25T00:06:07;7.10;99.90
2465;DHT22;1244;54.326;10.074;2024-01-25T00:08:33;7.10;99.90
2465;DHT22;1244;54.326;10.074;2024-01-25T00:11:01;7.20;99.90
2465;DHT22;1244;54.326;10.074;2024-01-25T00:13:26;7.10;99.90
2465;DHT22;1244;54.326;10.074;2024-01-25T00:15:52;7.20;99.90
2465;DHT22;1244;54.326;10.074;2024-01-25T00:18:17;7.20;99.90
2465;DHT22;1244;54.326;10.074;2024-01-25T00:20:43;7.20;99.90
2465;DHT22;1244;54.326;10.074;2024-01-25T00:23:08;7.20;99.90
2465;DHT22;1244;54.326;10.074;2024-01-25T00:25:34;7.20;99.90
2465;DHT22;1244;54.326;10.074;2024-01-25T00:27:59;7.20;99.90
2465;DHT22;1244;54.326;10.074;2024-01-25T00:30:25;7.20;99.90
2465;DHT22;1244;54.326;10.074;2024-01-25T00:32:50;7.20;99.90
2465;DHT22;1244;54.326;10.074;2024-01-25T00:35:16;7.20;99.90
2465;DHT22;1244;54.326;10.074;2024-01-25T00:37:42;7.20;99.90
2465;DHT22;1244;54.326;10.074;2024-01-25T00:40:08;7.10;99.90
2465;DHT22;1244;54.326;10.074;2024-01-25T00:42:41;7.10;99.90
2465;DHT22;1244;54.326;10.074;2024-01-25T00:45:07;7.10;99.90
2465;DHT22;1244;54.326;10.074;2024-01-25T00:47:33;7.10;99.90
2465;DHT22;1244;54.326;10.074;2024-01-25T00:49:59;7.10;99.90
2465;DHT22;1244;54.326;10.074;2024-01-25T00:52:25;7.00;99.90
2465;DHT22;1244;54.326;10.074;2024-01-25T00:54:51;7.00;99.90
2465;DHT22;1244;54.326;10.074;2024-01-25T00:57:17;7.00;99.90
2465;DHT22;1244;54.326;10.074;2024-01-25T00:59:42;6.90;99.90
2465;DHT22;1244;54.326;10.074;2024-01-25T01:02:12;6.90;99.90
2465;DHT22;1244;54.326;10.074;2024-01-25T01:04:38;6.90;99.90
2465;DHT22;1244;54.326;10.074;2024-01-25T01:07:04;6.90;99.90
2465;DHT22;1244;54.326;10.074;2024-01-25T01:09:30;6.90;99.90
2465;DHT22;1244;54.326;10.074;2024-01-25T01:11:55;6.90;99.90
2465;DHT22;1244;54.326;10.074;2024-01-25T01:14:21;6.90;99.90
2465;DHT22;1244;54.326;10.074;2024-01-25T01:16:46;6.90;99.90
2465;DHT22;1244;54.326;10.074;2024-01-25T01:19:12;6.90;99.90
2465;DHT22;1244;54.326;10.074;2024-01-25T01:21:38;6.90;99.90
2465;DHT22;1244;54.326;10.074;2024-01-25T01:24:06;6.90;99.90
2465;DHT22;1244;54.326;10.074;2024-01-25T01:26:32;6.90;99.90
2465;DHT22;1244;54.326;10.074;2024-01-25T01:28:57;6.90;99.90
2465;DHT22;1244;54.326;10.074;2024-01-25T01:31:23;6.90;99.90
2465;DHT22;1244;54.326;10.074;2024-01-25T01:33:48;6.90;99.90
2465;DHT22;1244;54.326;10.074;2024-01-25T01:36:14;6.90;99.90
2465;DHT22;1244;54.326;10.074;2024-01-25T01:38:40;6.90;99.90
2465;DHT22;1244;54.326;10.074;2024-01-25T01:41:05;6.90;99.90
2465;DHT22;1244;54.326;10.074;2024-01-25T01:43:31;6.90;99.90
2465;DHT22;1244;54.326;10.074;2024-01-25T01:46:04;6.90;99.90
2465;DHT22;1244;54.326;10.074;2024-01-25T01:48:30;6.90;99.90
2465;DHT22;1244;54.326;10.074;2024-01-25T01:50:56;6.90;99.90
2465;DHT22;1244;54.326;10.074;2024-01-25T01:53:21;6.90;99.90
2465;DHT22;1244;54.326;10.074;2024-01-25T01:55:47;6.90;99.90
2465;DHT22;1244;54.326;10.074;2024-01-25T01:58:13;6.90;99.90
2465;DHT22;1244;54.326;10.074;2024-01-25T02:00:41;6.80;99.90
2465;DHT22;1244;54.326;10.074;2024-01-25T02:03:07;6.80;99.90
2465;DHT22;1244;54.326;10.074;2024-01-25T02:05:33;6.80;99.90
2465;DHT22;1244;54.326;10.074;2024-01-25T02:07:58;6.80;99.90
2465;DHT22;1244;54.326;10.074;2024-01-25T02:10:24;6.80;99.90
2465;DHT22;1244;54.326;10.074;2024-01-25T02:12:49;6.80;99.90
2465;DHT22;1244;54.326;10.074;2024-01-25T02:15:15;6.80;99.90
2465;DHT22;1244;54.326;10.074;2024-01-25T02:17:40;6.80;99.90
2465;DHT22;1244;54.326;10.074;2024-01-25T02:20:07;6.80;99.90
2465;DHT22;1244;54.326;10.074;2024-01-25T02:22:32;6.80;99.90
2465;DHT22;1244;54.326;10.074;2024-01-25T02:24:58;6.80;99.90
2465;DHT22;1244;54.326;10.074;2024-01-25T02:27:23;6.80;99.90
2465;DHT22;1244;54.326;10.074;2024-01-25T02:29:49;6.80;99.90
2465;DHT22;1244;54.326;10.074;2024-01-25T02:32:15;6.80;99.90
2465;DHT22;1244;54.326;10.074;2024-01-25T02:34:40;6.80;99.90
2465;DHT22;1244;54.326;10.074;2024-01-25T02:37:06;6.80;99.90
2465;DHT22;1244;54.326;10.074;2024-01-25T02:39:31;6.80;99.90
2465;DHT22;1244;54.326;10.074;2024-01-25T02:41:57;6.80;99.90
2465;DHT22;1244;54.326;10.074;2024-01-25T02:44:22;6.80;99.90
2465;DHT22;1244;54.326;10.074;2024-01-25T02:46:48;6.90;99.90
2465;DHT22;1244;54.326;10.074;2024-01-25T02:49:13;6.80;99.90
2465;DHT22;1244;54.326;10.074;2024-01-25T02:51:39;6.90;99.90
2465;DHT22;1244;54.326;10.074;2024-01-25T02:54:04;6.90;99.90
2465;DHT22;1244;54.326;10.074;2024-01-25T02:56:30;6.90;99.90
2465;DHT22;1244;54.326;10.074;2024-01-25T02:59:00;6.90;99.90
2465;DHT22;1244;54.326;10.074;2024-01-25T03:01:26;6.90;99.90
2465;DHT22;1244;54.326;10.074;2024-01-25T03:03:51;6.90;99.90
2465;DHT22;1244;54.326;10.074;2024-01-25T03:06:17;6.90;99.90
2465;DHT22;1244;54.326;10.074;2024-01-25T03:08:42;6.90;99.90
2465;DHT22;1244;54.326;10.074;2024-01-25T03:11:08;6.90;99.90
2465;DHT22;1244;54.326;10.074;2024-01-25T03:13:34;6.90;99.90
2465;DHT22;1244;54.326;10.074;2024-01-25T03:15:59;6.90;99.90
2465;DHT22;1244;54.326;10.074;2024-01-25T03:18:25;6.80;99.90
2465;DHT22;1244;54.326;10.074;2024-01-25T03:20:51;6.80;99.90
2465;DHT22;1244;54.326;10.074;2024-01-25T03:23:17;6.90;99.90
2465;DHT22;1244;54.326;10.074;2024-01-25T03:25:42;6.80;99.90
2465;DHT22;1244;54.326;10.074;2024-01-25T03:28:08;6.90;99.90
2465;DHT22;1244;54.326;10.074;2024-01-25T03:30:34;6.90;99.90
2465;DHT22;1244;54.326;10.074;2024-01-25T03:33:00;6.80;99.90
2465;DHT22;1244;54.326;10.074;2024-01-25T03:35:26;6.90;99.90
2465;DHT22;1244;54.326;10.074;2024-01-25T03:37:51;6.90;99.90
2465;DHT22;1244;54.326;10.074;2024-01-25T03:40:17;6.90;99.90
2465;DHT22;1244;54.326;10.074;2024-01-25T03:42:42;6.80;99.90
2465;DHT22;1244;54.326;10.074;2024-01-25T03:45:08;6.80;99.90
2465;DHT22;1244;54.326;10.074;2024-01-25T03:47:33;6.80;99.90
2465;DHT22;1244;54.326;10.074;2024-01-25T03:49:59;6.80;99.90
2465;DHT22;1244;54.326;10.074;2024-01-25T03:52:25;6.80;99.90
2465;DHT22;1244;54.326;10.074;2024-01-25T03:54:51;6.90;99.90
2465;DHT22;1244;54.326;10.074;2024-01-25T03:57:16;6.80;99.90
2465;DHT22;1244;54.326;10.074;2024-01-25T03:59:42;6.80;99.90
2465;DHT22;1244;54.326;10.074;2024-01-25T04:02:07;6.80;99.90
2465;DHT22;1244;54.326;10.074;2024-01-25T04:04:33;6.80;99.90
2465;DHT22;1244;54.326;10.074;2024-01-25T04:06:59;6.80;99.90
2465;DHT22;1244;54.326;10.074;2024-01-25T04:09:24;6.80;99.90
2465;DHT22;1244;54.326;10.074;2024-01-25T04:11:50;6.80;99.90
2465;DHT22;1244;54.326;10.074;2024-01-25T04:14:15;6.80;99.90
2465;DHT22;1244;54.326;10.074;2024-01-25T04:16:41;6.80;99.90
2465;DHT22;1244;54.326;10.074;2024-01-25T04:19:06;6.80;99.90
2465;DHT22;1244;54.326;10.074;2024-01-25T04:21:32;6.80;99.90
2465;DHT22;1244;54.326;10.074;2024-01-25T04:23:58;6.80;99.90
2465;DHT22;1244;54.326;10.074;2024-01-25T04:26:24;6.80;99.90
2465;DHT22;1244;54.326;10.074;2024-01-25T04:28:49;6.80;99.90
2465;DHT22;1244;54.326;10.074;2024-01-25T04:31:15;6.80;99.90
2465;DHT22;1244;54.326;10.074;2024-01-25T04:33:40;6.80;99.90
2465;DHT22;1244;54.326;10.074;2024-01-25T04:36:06;6.80;99.90
2465;DHT22;1244;54.326;10.074;2024-01-25T04:38:32;6.80;99.90
2465;DHT22;1244;54.326;10.074;2024-01-25T04:40:57;6.80;99.90
2465;DHT22;1244;54.326;10.074;2024-01-25T04:43:23;6.80;99.90
2465;DHT22;1244;54.326;10.074;2024-01-25T04:45:48;6.80;99.90
2465;DHT22;1244;54.326;10.074;2024-01-25T04:48:14;6.70;99.90
2465;DHT22;1244;54.326;10.074;2024-01-25T04:50:39;6.70;99.90
2465;DHT22;1244;54.326;10.074;2024-01-25T04:53:05;6.70;99.90
2465;DHT22;1244;54.326;10.074;2024-01-25T04:55:30;6.70;99.90
2465;DHT22;1244;54.326;10.074;2024-01-25T04:57:56;6.70;99.90
2465;DHT22;1244;54.326;10.074;2024-01-25T05:00:22;6.70;99.90
2465;DHT22;1244;54.326;10.074;2024-01-25T05:02:48;6.70;99.90
2465;DHT22;1244;54.326;10.074;2024-01-25T05:05:14;6.70;99.90
2465;DHT22;1244;54.326;10.074;2024-01-25T05:07:40;6.70;99.90
2465;DHT22;1244;54.326;10.074;2024-01-25T05:10:06;6.70;99.90
2465;DHT22;1244;54.326;10.074;2024-01-25T05:12:32;6.70;99.90
2465;DHT22;1244;54.326;10.074;2024-01-25T05:14:58;6.70;99.90
2465;DHT22;1244;54.326;10.074;2024-01-25T05:17:23;6.70;99.90
2465;DHT22;1244;54.326;10.074;2024-01-25T05:19:49;6.80;99.90
2465;DHT22;1244;54.326;10.074;2024-01-25T05:22:14;6.80;99.90
2465;DHT22;1244;54.326;10.074;2024-01-25T05:24:40;6.80;99.90
2465;DHT22;1244;54.326;10.074;2024-01-25T05:27:05;6.80;99.90
2465;DHT22;1244;54.326;10.074;2024-01-25T05:29:31;6.80;99.90
2465;DHT22;1244;54.326;10.074;2024-01-25T05:31:56;6.80;99.90
2465;DHT22;1244;54.326;10.074;2024-01-25T05:34:22;6.80;99.90
2465;DHT22;1244;54.326;10.074;2024-01-25T05:36:48;6.80;99.90
2465;DHT22;1244;54.326;10.074;2024-01-25T05:39:14;6.80;99.90
2465;DHT22;1244;54.326;10.074;2024-01-25T05:41:40;6.80;99.90
2465;DHT22;1244;54.326;10.074;2024-01-25T05:44:05;6.80;99.90
2465;DHT22;1244;54.326;10.074;2024-01-25T05:46:31;6.80;99.90
2465;DHT22;1244;54.326;10.074;2024-01-25T05:48:57;6.80;99.90
2465;DHT22;1244;54.326;10.074;2024-01-25T05:51:22;6.80;99.90
2465;DHT22;1244;54.326;10.074;2024-01-25T05:53:48;6.80;99.90
2465;DHT22;1244;54.326;10.074;2024-01-25T05:56:13;6.80;99.90
2465;DHT22;1244;54.326;10.074;2024-01-25T05:58:39;6.80;99.90
2465;DHT22;1244;54.326;10.074;2024-01-25T06:01:04;6.70;99.90
2465;DHT22;1244;54.326;10.074;2024-01-25T06:03:30;6.70;99.90
2465;DHT22;1244;54.326;10.074;2024-01-25T06:05:56;6.70;99.90
2465;DHT22;1244;54.326;10.074;2024-01-25T06:08:21;6.70;99.90
2465;DHT22;1244;54.326;10.074;2024-01-25T06:10:47;6.80;99.90
2465;DHT22;1244;54.326;10.074;2024-01-25T06:13:13;6.80;99.90
2465;DHT22;1244;54.326;10.074;2024-01-25T06:15:38;6.70;99.90
2465;DHT22;1244;54.326;10.074;2024-01-25T06:18:04;6.70;99.90
2465;DHT22;1244;54.326;10.074;2024-01-25T06:20:30;6.70;99.90
2465;DHT22;1244;54.326;10.074;2024-01-25T06:22:55;6.70;99.90
2465;DHT22;1244;54.326;10.074;2024-01-25T06:25:21;6.70;99.90
2465;DHT22;1244;54.326;10.074;2024-01-25T06:27:47;6.70;99.90
2465;DHT22;1244;54.326;10.074;2024-01-25T06:30:14;6.70;99.90
2465;DHT22;1244;54.326;10.074;2024-01-25T06:32:39;6.70;99.90
2465;DHT22;1244;54.326;10.074;2024-01-25T06:35:05;6.70;99.90
2465;DHT22;1244;54.326;10.074;2024-01-25T06:37:31;6.70;99.90
2465;DHT22;1244;54.326;10.074;2024-01-25T06:39:57;6.70;99.90
2465;DHT22;1244;54.326;10.074;2024-01-25T06:42:22;6.60;99.90
2465;DHT22;1244;54.326;10.074;2024-01-25T06:44:48;6.70;99.90
2465;DHT22;1244;54.326;10.074;2024-01-25T06:47:13;6.60;99.90
2465;DHT22;1244;54.326;10.074;2024-01-25T06:49:39;6.60;99.90
2465;DHT22;1244;54.326;10.074;2024-01-25T06:52:05;6.60;99.90
2465;DHT22;1244;54.326;10.074;2024-01-25T06:54:30;6.70;99.90
2465;DHT22;1244;54.326;10.074;2024-01-25T06:56:57;6.60;99.90
2465;DHT22;1244;54.326;10.074;2024-01-25T06:59:22;6.60;99.90
2465;DHT22;1244;54.326;10.074;2024-01-25T07:01:49;6.60;99.90
2465;DHT22;1244;54.326;10.074;2024-01-25T07:04:14;6.60;99.90
2465;DHT22;1244;54.326;10.074;2024-01-25T07:06:40;6.60;99.90
2465;DHT22;1244;54.326;10.074;2024-01-25T07:09:05;6.60;99.90
2465;DHT22;1244;54.326;10.074;2024-01-25T07:11:31;6.50;99.90
2465;DHT22;1244;54.326;10.074;2024-01-25T07:13:57;6.50;99.90
2465;DHT22;1244;54.326;10.074;2024-01-25T07:16:23;6.50;99.90
2465;DHT22;1244;54.326;10.074;2024-01-25T07:18:49;6.50;99.90
2465;DHT22;1244;54.326;10.074;2024-01-25T07:21:15;6.40;99.90
2465;DHT22;1244;54.326;10.074;2024-01-25T07:23:40;6.40;99.90
2465;DHT22;1244;54.326;10.074;2024-01-25T07:26:06;6.40;99.90
2465;DHT22;1244;54.326;10.074;2024-01-25T07:28:31;6.40;99.90
2465;DHT22;1244;54.326;10.074;2024-01-25T07:30:57;6.40;99.90
2465;DHT22;1244;54.326;10.074;2024-01-25T07:33:22;6.30;99.90
2465;DHT22;1244;54.326;10.074;2024-01-25T07:35:48;6.30;99.90
2465;DHT22;1244;54.326;10.074;2024-01-25T07:38:17;6.30;99.90
2465;DHT22;1244;54.326;10.074;2024-01-25T07:40:43;6.30;99.90
2465;DHT22;1244;54.326;10.074;2024-01-25T07:43:08;6.30;99.90
2465;DHT22;1244;54.326;10.074;2024-01-25T07:45:34;6.30;99.90
2465;DHT22;1244;54.326;10.074;2024-01-25T07:48:00;6.40;99.90
2465;DHT22;1244;54.326;10.074;2024-01-25T07:50:25;6.40;99.90
2465;DHT22;1244;54.326;10.074;2024-01-25T07:52:51;6.40;99.90
2465;DHT22;1244;54.326;10.074;2024-01-25T07:55:16;6.40;99.90
2465;DHT22;1244;54.326;10.074;2024-01-25T07:57:42;6.40;99.90
2465;DHT22;1244;54.326;10.074;2024-01-25T08:00:08;6.40;99.90
2465;DHT22;1244;54.326;10.074;2024-01-25T08:02:37;6.40;99.90
2465;DHT22;1244;54.326;10.074;2024-01-25T08:05:08;6.50;99.90
2465;DHT22;1244;54.326;10.074;2024-01-25T08:07:36;6.50;99.90
2465;DHT22;1244;54.326;10.074;2024-01-25T08:10:03;6.50;99.90
2465;DHT22;1244;54.326;10.074;2024-01-25T08:12:29;6.50;99.90
2465;DHT22;1244;54.326;10.074;2024-01-25T08:14:55;6.50;99.90
2465;DHT22;1244;54.326;10.074;2024-01-25T08:17:20;6.60;99.90
2465;DHT22;1244;54.326;10.074;2024-01-25T08:19:46;6.60;99.90
2465;DHT22;1244;54.326;10.074;2024-01-25T08:22:12;6.60;99.90
2465;DHT22;1244;54.326;10.074;2024-01-25T08:24:40;6.60;99.90
2465;DHT22;1244;54.326;10.074;2024-01-25T08:27:06;6.60;99.90
2465;DHT22;1244;54.326;10.074;2024-01-25T08:29:33;6.60;99.90
2465;DHT22;1244;54.326;10.074;2024-01-25T08:31:58;6.60;99.90
2465;DHT22;1244;54.326;10.074;2024-01-25T08:34:24;6.70;99.90
2465;DHT22;1244;54.326;10.074;2024-01-25T08:36:49;6.70;99.90
2465;DHT22;1244;54.326;10.074;2024-01-25T08:39:15;6.70;99.90
2465;DHT22;1244;54.326;10.074;2024-01-25T08:41:41;6.70;99.90
2465;DHT22;1244;54.326;10.074;2024-01-25T08:44:08;6.70;99.90
2465;DHT22;1244;54.326;10.074;2024-01-25T08:46:34;6.80;99.90
2465;DHT22;1244;54.326;10.074;2024-01-25T08:48:59;6.90;99.90
2465;DHT22;1244;54.326;10.074;2024-01-25T08:51:26;6.90;99.90
2465;DHT22;1244;54.326;10.074;2024-01-25T08:53:51;6.90;99.90
2465;DHT22;1244;54.326;10.074;2024-01-25T08:56:17;6.90;99.90
2465;DHT22;1244;54.326;10.074;2024-01-25T08:58:42;7.00;99.90
2465;DHT22;1244;54.326;10.074;2024-01-25T09:01:08;6.90;99.90
2465;DHT22;1244;54.326;10.074;2024-01-25T09:03:34;7.10;99.90
2465;DHT22;1244;54.326;10.074;2024-01-25T09:05:59;7.10;99.90
2465;DHT22;1244;54.326;10.074;2024-01-25T09:08:30;7.10;99.90
2465;DHT22;1244;54.326;10.074;2024-01-25T09:10:56;7.10;99.90
2465;DHT22;1244;54.326;10.074;2024-01-25T09:13:21;7.10;99.90
2465;DHT22;1244;54.326;10.074;2024-01-25T09:15:47;7.20;99.90
2465;DHT22;1244;54.326;10.074;2024-01-25T09:18:12;7.10;99.90
2465;DHT22;1244;54.326;10.074;2024-01-25T09:20:38;7.10;99.90
2465;DHT22;1244;54.326;10.074;2024-01-25T09:23:04;7.10;99.90
2465;DHT22;1244;54.326;10.074;2024-01-25T09:25:29;7.30;99.90
2465;DHT22;1244;54.326;10.074;2024-01-25T09:27:55;7.30;99.90
2465;DHT22;1244;54.326;10.074;2024-01-25T09:30:22;7.40;99.90
2465;DHT22;1244;54.326;10.074;2024-01-25T09:32:48;7.40;99.90
2465;DHT22;1244;54.326;10.074;2024-01-25T09:35:13;7.40;99.90
2465;DHT22;1244;54.326;10.074;2024-01-25T09:37:40;7.50;99.90
2465;DHT22;1244;54.326;10.074;2024-01-25T09:40:06;7.50;99.90
2465;DHT22;1244;54.326;10.074;2024-01-25T09:42:31;7.40;99.90
2465;DHT22;1244;54.326;10.074;2024-01-25T09:44:59;7.60;99.90
2465;DHT22;1244;54.326;10.074;2024-01-25T09:47:24;7.70;99.90
2465;DHT22;1244;54.326;10.074;2024-01-25T09:49:50;7.80;99.90
2465;DHT22;1244;54.326;10.074;2024-01-25T09:52:16;7.90;99.90
2465;DHT22;1244;54.326;10.074;2024-01-25T09:54:42;7.80;99.90
2465;DHT22;1244;54.326;10.074;2024-01-25T09:57:16;7.80;99.90
2465;DHT22;1244;54.326;10.074;2024-01-25T09:59:44;7.70;99.90
2465;DHT22;1244;54.326;10.074;2024-01-25T10:02:11;7.80;99.90
2465;DHT22;1244;54.326;10.074;2024-01-25T10:04:37;7.90;99.90
2465;DHT22;1244;54.326;10.074;2024-01-25T10:07:02;7.90;99.90
2465;DHT22;1244;54.326;10.074;2024-01-25T10:09:31;8.00;99.90
2465;DHT22;1244;54.326;10.074;2024-01-25T10:12:03;8.00;99.90
2465;DHT22;1244;54.326;10.074;2024-01-25T10:14:28;8.00;99.90
2465;DHT22;1244;54.326;10.074;2024-01-25T10:16:54;7.90;99.90
2465;DHT22;1244;54.326;10.074;2024-01-25T10:19:20;7.90;99.90
2465;DHT22;1244;54.326;10.074;2024-01-25T10:21:45;7.90;99.90
2465;DHT22;1244;54.326;10.074;2024-01-25T10:24:12;8.20;99.90
2465;DHT22;1244;54.326;10.074;2024-01-25T10:26:38;8.10;99.90
2465;DHT22;1244;54.326;10.074;2024-01-25T10:29:06;8.20;99.90
2465;DHT22;1244;54.326;10.074;2024-01-25T10:31:32;8.70;99.90
2465;DHT22;1244;54.326;10.074;2024-01-25T10:34:01;8.70;99.90
2465;DHT22;1244;54.326;10.074;2024-01-25T10:36:27;8.90;99.90
2465;DHT22;1244;54.326;10.074;2024-01-25T10:38:54;8.80;99.90
2465;DHT22;1244;54.326;10.074;2024-01-25T10:41:19;9.20;99.90
2465;DHT22;1244;54.326;10.074;2024-01-25T10:43:45;8.60;99.90
2465;DHT22;1244;54.326;10.074;2024-01-25T10:46:11;9.00;99.90
2465;DHT22;1244;54.326;10.074;2024-01-25T10:48:37;8.80;99.90
2465;DHT22;1244;54.326;10.074;2024-01-25T10:51:04;9.40;99.90
2465;DHT22;1244;54.326;10.074;2024-01-25T10:53:34;10.10;99.90
2465;DHT22;1244;54.326;10.074;2024-01-25T10:56:00;10.50;99.90
2465;DHT22;1244;54.326;10.074;2024-01-25T10:58:30;10.40;99.90
2465;DHT22;1244;54.326;10.074;2024-01-25T11:00:56;10.00;99.90
2465;DHT22;1244;54.326;10.074;2024-01-25T11:03:30;9.50;99.90
2465;DHT22;1244;54.326;10.074;2024-01-25T11:06:08;9.20;99.90
2465;DHT22;1244;54.326;10.074;2024-01-25T11:08:35;9.20;99.90
2465;DHT22;1244;54.326;10.074;2024-01-25T11:11:07;9.00;99.90
2465;DHT22;1244;54.326;10.074;2024-01-25T11:13:39;9.00;99.90
2465;DHT22;1244;54.326;10.074;2024-01-25T11:16:15;8.90;99.90
2465;DHT22;1244;54.326;10.074;2024-01-25T11:18:51;8.70;99.90
2465;DHT22;1244;54.326;10.074;2024-01-25T11:21:41;8.60;99.90
2465;DHT22;1244;54.326;10.074;2024-01-25T11:24:21;9.00;99.90
2465;DHT22;1244;54.326;10.074;2024-01-25T11:26:47;9.10;99.90
2465;DHT22;1244;54.326;10.074;2024-01-25T11:29:16;9.10;99.90
2465;DHT22;1244;54.326;10.074;2024-01-25T11:31:43;9.00;99.90
2465;DHT22;1244;54.326;10.074;2024-01-25T11:34:11;9.30;99.90
2465;DHT22;1244;54.326;10.074;2024-01-25T11:36:36;9.30;99.90
2465;DHT22;1244;54.326;10.074;2024-01-25T11:39:02;9.10;99.90
2465;DHT22;1244;54.326;10.074;2024-01-25T11:41:30;9.00;99.90
2465;DHT22;1244;54.326;10.074;2024-01-25T11:43:56;9.10;99.90
2465;DHT22;1244;54.326;10.074;2024-01-25T11:46:22;9.10;99.90
2465;DHT22;1244;54.326;10.074;2024-01-25T11:48:47;8.90;99.90
2465;DHT22;1244;54.326;10.074;2024-01-25T11:51:13;9.00;99.90
2465;DHT22;1244;54.326;10.074;2024-01-25T11:53:38;9.10;99.90
2465;DHT22;1244;54.326;10.074;2024-01-25T11:56:07;9.70;99.90
2465;DHT22;1244;54.326;10.074;2024-01-25T11:58:34;9.80;99.90
2465;DHT22;1244;54.326;10.074;2024-01-25T12:01:01;9.80;99.90
2465;DHT22;1244;54.326;10.074;2024-01-25T12:03:28;10.10;99.90
2465;DHT22;1244;54.326;10.074;2024-01-25T12:05:53;11.00;99.90
2465;DHT22;1244;54.326;10.074;2024-01-25T12:08:19;11.30;99.90
2465;DHT22;1244;54.326;10.074;2024-01-25T12:10:45;11.80;99.90
2465;DHT22;1244;54.326;10.074;2024-01-25T12:13:10;12.30;99.90
2465;DHT22;1244;54.326;10.074;2024-01-25T12:15:36;12.40;99.90
2465;DHT22;1244;54.326;10.074;2024-01-25T12:18:01;12.80;99.90
2465;DHT22;1244;54.326;10.074;2024-01-25T12:20:28;12.40;99.90
2465;DHT22;1244;54.326;10.074;2024-01-25T12:22:54;12.20;99.90
2465;DHT22;1244;54.326;10.074;2024-01-25T12:25:19;11.60;99.90
2465;DHT22;1244;54.326;10.074;2024-01-25T12:27:47;10.60;99.90
2465;DHT22;1244;54.326;10.074;2024-01-25T12:30:15;10.40;99.90
2465;DHT22;1244;54.326;10.074;2024-01-25T12:32:40;10.60;99.90
2465;DHT22;1244;54.326;10.074;2024-01-25T12:35:06;11.30;99.90
2465;DHT22;1244;54.326;10.074;2024-01-25T12:37:33;11.30;99.90
2465;DHT22;1244;54.326;10.074;2024-01-25T12:39:58;10.80;99.90
2465;DHT22;1244;54.326;10.074;2024-01-25T12:42:24;10.40;99.90
2465;DHT22;1244;54.326;10.074;2024-01-25T12:44:53;10.00;99.90
2465;DHT22;1244;54.326;10.074;2024-01-25T12:47:19;9.70;99.90
2465;DHT22;1244;54.326;10.074;2024-01-25T12:49:45;9.50;99.90
2465;DHT22;1244;54.326;10.074;2024-01-25T12:52:12;9.10;99.90
2465;DHT22;1244;54.326;10.074;2024-01-25T12:54:38;9.60;99.90
2465;DHT22;1244;54.326;10.074;2024-01-25T12:57:04;9.50;99.90
2465;DHT22;1244;54.326;10.074;2024-01-25T12:59:30;10.30;99.90
2465;DHT22;1244;54.326;10.074;2024-01-25T13:01:55;10.30;99.90
2465;DHT22;1244;54.326;10.074;2024-01-25T13:04:21;10.10;99.90
2465;DHT22;1244;54.326;10.074;2024-01-25T13:06:48;10.70;99.90
2465;DHT22;1244;54.326;10.074;2024-01-25T13:09:13;11.10;99.90
2465;DHT22;1244;54.326;10.074;2024-01-25T13:11:41;11.40;99.90
2465;DHT22;1244;54.326;10.074;2024-01-25T13:14:06;10.60;99.90
2465;DHT22;1244;54.326;10.074;2024-01-25T13:16:32;10.70;99.90
2465;DHT22;1244;54.326;10.074;2024-01-25T13:18:58;10.50;99.90
2465;DHT22;1244;54.326;10.074;2024-01-25T13:21:23;10.20;99.90
2465;DHT22;1244;54.326;10.074;2024-01-25T13:23:49;9.70;99.90
2465;DHT22;1244;54.326;10.074;2024-01-25T13:26:14;9.90;99.90
2465;DHT22;1244;54.326;10.074;2024-01-25T13:28:40;10.10;99.90
2465;DHT22;1244;54.326;10.074;2024-01-25T13:31:05;10.40;99.90
2465;DHT22;1244;54.326;10.074;2024-01-25T13:33:31;10.30;99.90
2465;DHT22;1244;54.326;10.074;2024-01-25T13:35:57;10.10;99.90
2465;DHT22;1244;54.326;10.074;2024-01-25T13:38:22;9.70;99.90
2465;DHT22;1244;54.326;10.074;2024-01-25T13:40:49;9.30;99.90
2465;DHT22;1244;54.326;10.074;2024-01-25T13:43:15;8.70;99.90
2465;DHT22;1244;54.326;10.074;2024-01-25T13:45:41;8.70;99.90
2465;DHT22;1244;54.326;10.074;2024-01-25T13:48:07;8.60;99.90
2465;DHT22;1244;54.326;10.074;2024-01-25T13:50:32;8.40;99.90
2465;DHT22;1244;54.326;10.074;2024-01-25T13:52:58;8.60;99.90
2465;DHT22;1244;54.326;10.074;2024-01-25T13:55:23;8.80;99.90
2465;DHT22;1244;54.326;10.074;2024-01-25T13:57:49;8.30;99.90
2465;DHT22;1244;54.326;10.074;2024-01-25T14:00:15;8.20;99.90
2465;DHT22;1244;54.326;10.074;2024-01-25T14:02:40;8.00;99.90
2465;DHT22;1244;54.326;10.074;2024-01-25T14:05:13;7.90;99.90
2465;DHT22;1244;54.326;10.074;2024-01-25T14:07:38;7.80;99.90
2465;DHT22;1244;54.326;10.074;2024-01-25T14:10:04;7.80;99.90
2465;DHT22;1244;54.326;10.074;2024-01-25T14:12:29;7.90;99.90
2465;DHT22;1244;54.326;10.074;2024-01-25T14:14:55;7.80;99.90
2465;DHT22;1244;54.326;10.074;2024-01-25T14:17:20;7.70;99.90
2465;DHT22;1244;54.326;10.074;2024-01-25T14:19:47;7.60;99.90
2465;DHT22;1244;54.326;10.074;2024-01-25T14:22:12;7.60;99.90
2465;DHT22;1244;54.326;10.074;2024-01-25T14:24:38;7.60;99.90
2465;DHT22;1244;54.326;10.074;2024-01-25T14:27:04;7.50;99.90
2465;DHT22;1244;54.326;10.074;2024-01-25T14:29:29;7.40;99.90
2465;DHT22;1244;54.326;10.074;2024-01-25T14:31:58;7.30;99.90
2465;DHT22;1244;54.326;10.074;2024-01-25T14:34:23;7.30;99.90
2465;DHT22;1244;54.326;10.074;2024-01-25T14:36:49;7.30;99.90
2465;DHT22;1244;54.326;10.074;2024-01-25T14:39:15;7.40;99.90
2465;DHT22;1244;54.326;10.074;2024-01-25T14:41:44;7.30;99.90
2465;DHT22;1244;54.326;10.074;2024-01-25T14:44:09;7.40;99.90
2465;DHT22;1244;54.326;10.074;2024-01-25T14:46:35;7.30;99.90
2465;DHT22;1244;54.326;10.074;2024-01-25T14:49:00;7.40;99.90
2465;DHT22;1244;54.326;10.074;2024-01-25T14:51:26;7.40;99.90
2465;DHT22;1244;54.326;10.074;2024-01-25T14:53:51;7.30;99.90
2465;DHT22;1244;54.326;10.074;2024-01-25T14:56:17;7.20;99.90
2465;DHT22;1244;54.326;10.074;2024-01-25T14:58:42;7.20;99.90
2465;DHT22;1244;54.326;10.074;2024-01-25T15:01:13;7.20;99.90
2465;DHT22;1244;54.326;10.074;2024-01-25T15:03:38;7.30;99.90
2465;DHT22;1244;54.326;10.074;2024-01-25T15:06:05;7.30;99.90
2465;DHT22;1244;54.326;10.074;2024-01-25T15:08:31;7.20;99.90
2465;DHT22;1244;54.326;10.074;2024-01-25T15:10:56;7.20;99.90
2465;DHT22;1244;54.326;10.074;2024-01-25T15:13:22;7.20;99.90
2465;DHT22;1244;54.326;10.074;2024-01-25T15:15:47;7.10;99.90
2465;DHT22;1244;54.326;10.074;2024-01-25T15:18:13;7.10;99.90
2465;DHT22;1244;54.326;10.074;2024-01-25T15:20:38;7.00;99.90
2465;DHT22;1244;54.326;10.074;2024-01-25T15:23:04;7.00;99.90
2465;DHT22;1244;54.326;10.074;2024-01-25T15:25:29;7.00;99.90
2465;DHT22;1244;54.326;10.074;2024-01-25T15:27:55;7.10;99.90
2465;DHT22;1244;54.326;10.074;2024-01-25T15:30:21;6.90;99.90
2465;DHT22;1244;54.326;10.074;2024-01-25T15:32:46;6.90;99.90
2465;DHT22;1244;54.326;10.074;2024-01-25T15:35:13;6.90;99.90
2465;DHT22;1244;54.326;10.074;2024-01-25T15:37:38;6.90;99.90
2465;DHT22;1244;54.326;10.074;2024-01-25T15:40:07;6.90;99.90
2465;DHT22;1244;54.326;10.074;2024-01-25T15:42:38;7.00;99.90
2465;DHT22;1244;54.326;10.074;2024-01-25T15:45:05;7.00;99.90
2465;DHT22;1244;54.326;10.074;2024-01-25T15:47:30;6.90;99.90
2465;DHT22;1244;54.326;10.074;2024-01-25T15:49:57;6.80;99.90
2465;DHT22;1244;54.326;10.074;2024-01-25T15:52:22;6.90;99.90